Time;durP1;ratioP1;P1;durP2;ratioP2;P2;SDS_P1;SDS_P2;PMS_P1;PMS_P2;Temp;Humidity;BMP_temperature;BMP_pressure;BME280_temperature;BME280_humidity;BME280_pressure;Samples;Min_cycle;Max_cycle;Signal;HPM_P1;HPM_P2
2023/11/10 00:00:54;;;;;;;5.40;3.50;;;;;;;5.27;100.00;99140.04;109633;1251;59039;-71
2023/11/10 00:03:21;;;;;;;4.70;3.70;;;;;;;5.26;100.00;99138.64;109650;1251;59411;-70
2023/11/10 00:05:47;;;;;;;4.20;3.80;;;;;;;5.23;100.00;99139.04;109675;1250;73139;-71
2023/11/10 00:08:14;;;;;;;4.40;4.00;;;;;;;5.21;100.00;99141.60;109694;1250;58928;-71
2023/11/10 00:10:41;;;;;;;4.00;3.70;;;;;;;5.20;100.00;99140.58;109632;1250;71400;-70
2023/11/10 00:13:08;;;;;;;4.90;3.30;;;;;;;5.22;100.00;99139.18;109593;1250;60963;-70
2023/11/10 00:15:35;;;;;;;4.10;3.70;;;;;;;5.23;100.00;99139.59;109627;1250;58943;-71
2023/11/10 00:18:02;;;;;;;3.90;3.60;;;;;;;5.24;100.00;99137.42;109666;1249;73958;-71
2023/11/10 00:20:31;;;;;;;3.90;3.60;;;;;;;5.25;100.00;99129.53;109673;1250;66406;-71
2023/11/10 00:22:58;;;;;;;6.50;3.50;;;;;;;5.27;100.00;99130.60;109657;1250;70267;-71
2023/11/10 00:25:24;;;;;;;4.00;3.60;;;;;;;5.26;100.00;99128.25;109619;1250;60159;-71
2023/11/10 00:27:51;;;;;;;4.10;3.20;;;;;;;5.24;100.00;99123.67;109610;1250;59026;-70
2023/11/10 00:30:19;;;;;;;4.80;3.90;;;;;;;5.23;100.00;99124.85;109633;1250;73164;-71
2023/11/10 00:32:45;;;;;;;6.60;3.60;;;;;;;5.21;100.00;99121.11;109678;1250;67711;-70
2023/11/10 00:35:12;;;;;;;3.90;3.50;;;;;;;5.21;100.00;99118.89;109642;1250;72907;-71
2023/11/10 00:37:39;;;;;;;3.70;3.40;;;;;;;5.20;100.00;99118.56;109646;1250;60249;-71
2023/11/10 00:40:06;;;;;;;3.90;2.80;;;;;;;5.19;100.00;99119.53;109651;1250;60476;-71
2023/11/10 00:42:33;;;;;;;4.30;3.40;;;;;;;5.19;100.00;99123.98;109633;1250;74652;-71
2023/11/10 00:45:00;;;;;;;3.60;3.30;;;;;;;5.19;100.00;99120.80;109587;1251;66396;-71
2023/11/10 00:47:26;;;;;;;6.50;3.20;;;;;;;5.19;100.00;99110.73;109625;1250;72580;-71
2023/11/10 00:49:53;;;;;;;3.50;3.20;;;;;;;5.17;100.00;99113.30;109596;1250;61090;-71
2023/11/10 00:52:21;;;;;;;4.40;3.40;;;;;;;5.14;100.00;99108.59;109631;1250;58971;-71
2023/11/10 00:54:47;;;;;;;4.20;3.00;;;;;;;5.14;100.00;99106.70;109658;1250;72394;-71
2023/11/10 00:57:14;;;;;;;5.30;3.70;;;;;;;5.13;100.00;99103.79;109688;1251;67666;-71
2023/11/10 00:59:41;;;;;;;3.40;3.00;;;;;;;5.09;100.00;99100.34;109643;1250;72943;-71
2023/11/10 01:02:07;;;;;;;3.50;3.00;;;;;;;5.03;100.00;99098.98;109529;1251;58922;-71
2023/11/10 01:04:34;;;;;;;4.90;3.50;;;;;;;4.97;100.00;99101.24;109667;1250;59244;-71
2023/11/10 01:07:01;;;;;;;3.70;3.00;;;;;;;4.90;100.00;99097.00;109648;1250;74608;-71
2023/11/10 01:09:27;;;;;;;4.70;3.00;;;;;;;4.85;100.00;99096.61;109644;1250;66363;-71
2023/11/10 01:11:54;;;;;;;4.00;3.30;;;;;;;4.81;100.00;99101.21;109669;1250;72559;-71
2023/11/10 01:14:21;;;;;;;5.70;3.40;;;;;;;4.77;100.00;99097.37;109596;1251;59312;-71
2023/11/10 01:16:50;;;;;;;4.10;3.70;;;;;;;4.73;100.00;99102.98;109645;1250;60827;-71
2023/11/10 01:19:17;;;;;;;4.60;3.50;;;;;;;4.66;100.00;99101.91;109669;1250;73564;-71
2023/11/10 01:21:45;;;;;;;5.50;3.40;;;;;;;4.60;100.00;99099.90;109640;1250;66445;-70
2023/11/10 01:24:12;;;;;;;4.50;3.20;;;;;;;4.52;100.00;99091.61;109489;1249;71551;-70
2023/11/10 01:26:39;;;;;;;5.00;3.70;;;;;;;4.45;100.00;99087.20;109632;1250;59935;-70
2023/11/10 01:29:06;;;;;;;4.70;3.10;;;;;;;4.38;100.00;99089.92;109598;1250;59303;-70
2023/11/10 01:31:33;;;;;;;5.20;3.60;;;;;;;4.31;100.00;99085.15;109647;1250;74426;-70
2023/11/10 01:34:00;;;;;;;5.00;3.30;;;;;;;4.28;100.00;99086.14;109692;1250;66622;-70
2023/11/10 01:36:27;;;;;;;4.80;3.50;;;;;;;4.22;100.00;99082.10;109650;1250;72493;-70
2023/11/10 01:38:55;;;;;;;4.10;3.70;;;;;;;4.20;100.00;99085.65;109621;1250;60989;-70
2023/11/10 01:41:22;;;;;;;3.80;3.10;;;;;;;4.18;100.00;99083.59;109511;1251;59083;-70
2023/11/10 01:43:49;;;;;;;5.30;3.80;;;;;;;4.15;100.00;99082.46;109622;1250;74553;-70
2023/11/10 01:46:45;;;;;;;4.70;3.20;;;;;;;4.13;100.00;99083.51;109685;1250;65529;-70
2023/11/10 01:49:13;;;;;;;4.80;3.60;;;;;;;4.13;100.00;99077.52;109639;1250;72758;-70
2023/11/10 01:51:39;;;;;;;3.30;2.90;;;;;;;4.14;100.00;99075.82;109414;1251;60173;-70
2023/11/10 01:54:07;;;;;;;5.30;3.50;;;;;;;4.17;100.00;99076.95;109678;1250;58992;-70
2023/11/10 01:56:33;;;;;;;4.20;3.30;;;;;;;4.20;100.00;99070.55;109598;1251;74523;-70
2023/11/10 01:59:01;;;;;;;3.90;3.00;;;;;;;4.21;100.00;99071.11;109674;1250;68360;-70
2023/11/10 02:01:28;;;;;;;5.90;3.50;;;;;;;4.25;100.00;99072.06;109348;1251;72445;-70
2023/11/10 02:03:54;;;;;;;4.10;3.20;;;;;;;4.29;100.00;99069.23;109605;1249;59420;-70
2023/11/10 02:06:21;;;;;;;4.50;3.20;;;;;;;4.33;100.00;99069.67;109541;1252;60125;-70
2023/11/10 02:08:48;;;;;;;3.80;3.30;;;;;;;4.38;100.00;99066.80;109541;1252;74536;-70
2023/11/10 02:11:14;;;;;;;4.60;3.70;;;;;;;4.42;100.00;99066.27;109635;1250;67795;-70
2023/11/10 02:13:41;;;;;;;6.10;3.70;;;;;;;4.42;100.00;99058.69;109539;1251;72740;-69
2023/11/10 02:16:07;;;;;;;4.90;3.90;;;;;;;4.36;100.00;99060.98;109650;1251;59045;-70
2023/11/10 02:18:34;;;;;;;5.00;3.60;;;;;;;4.32;100.00;99061.40;109695;1250;59356;-70
2023/11/10 02:21:00;;;;;;;7.50;3.80;;;;;;;4.29;100.00;99058.86;109432;1251;74585;-70
2023/11/10 02:23:27;;;;;;;5.00;3.70;;;;;;;4.23;100.00;99050.23;109672;1251;67229;-70
2023/11/10 02:25:54;;;;;;;5.50;3.90;;;;;;;4.18;100.00;99056.16;109628;1250;72438;-70
2023/11/10 02:28:23;;;;;;;10.50;4.70;;;;;;;4.12;100.00;99053.09;109637;1250;59491;-70
2023/11/10 02:30:49;;;;;;;5.50;4.00;;;;;;;4.05;100.00;99051.61;109637;1250;60139;-71
2023/11/10 02:33:16;;;;;;;4.40;4.00;;;;;;;3.96;100.00;99051.56;109623;1250;73885;-72
2023/11/10 02:35:43;;;;;;;5.80;4.30;;;;;;;3.88;100.00;99049.33;109635;1250;67856;-70
2023/11/10 02:38:09;;;;;;;8.70;4.60;;;;;;;3.83;100.00;99048.50;109643;1250;59017;-70
2023/11/10 02:40:36;;;;;;;5.40;4.60;;;;;;;3.79;100.00;99049.41;109597;1250;58974;-71
2023/11/10 02:43:02;;;;;;;5.50;4.60;;;;;;;3.75;100.00;99047.10;109675;1250;58923;-70
2023/11/10 02:45:29;;;;;;;5.30;4.80;;;;;;;3.70;100.00;99045.29;109609;1253;59252;-71
2023/11/10 02:47:56;;;;;;;5.50;5.00;;;;;;;3.65;100.00;99047.86;109542;1251;67689;-70
2023/11/10 02:50:23;;;;;;;6.70;4.40;;;;;;;3.61;100.00;99044.91;109606;1250;71143;-70
2023/11/10 02:52:50;;;;;;;5.10;4.50;;;;;;;3.58;100.00;99044.85;109626;1250;59620;-70
2023/11/10 02:55:16;;;;;;;5.20;4.10;;;;;;;3.55;100.00;99042.08;109486;1251;59334;-70
2023/11/10 02:57:43;;;;;;;4.30;3.90;;;;;;;3.53;100.00;99041.05;109573;1251;74600;-70
2023/11/10 03:00:10;;;;;;;6.80;4.30;;;;;;;3.51;100.00;99041.89;109520;1251;58994;-70
2023/11/10 03:02:37;;;;;;;6.30;4.90;;;;;;;3.50;100.00;99037.99;109578;1251;72487;-70
2023/11/10 03:05:04;;;;;;;5.80;4.50;;;;;;;3.51;100.00;99039.50;109554;1250;58932;-70
2023/11/10 03:07:32;;;;;;;5.20;4.20;;;;;;;3.53;100.00;99038.23;109589;1250;60181;-70
2023/11/10 03:09:59;;;;;;;4.70;4.30;;;;;;;3.57;100.00;99040.36;109628;1250;73196;-70
2023/11/10 03:12:25;;;;;;;4.50;3.90;;;;;;;3.60;100.00;99039.17;109573;1250;59314;-70
2023/11/10 03:14:52;;;;;;;5.40;4.10;;;;;;;3.64;100.00;99033.27;109647;1250;71247;-70
2023/11/10 03:17:19;;;;;;;4.40;4.00;;;;;;;3.68;100.00;99034.06;109528;1251;59379;-71
2023/11/10 03:19:45;;;;;;;4.70;3.60;;;;;;;3.72;100.00;99032.29;109651;1250;58902;-70
2023/11/10 03:22:13;;;;;;;5.30;4.80;;;;;;;3.75;100.00;99033.32;109673;1250;59596;-70
2023/11/10 03:24:40;;;;;;;5.30;4.30;;;;;;;3.77;100.00;99027.49;109479;1251;66420;-71
2023/11/10 03:27:08;;;;;;;5.60;4.20;;;;;;;3.80;100.00;99025.32;109562;1251;72444;-71
2023/11/10 03:29:35;;;;;;;4.90;3.80;;;;;;;3.82;100.00;99023.94;109588;1250;59883;-71
2023/11/10 03:32:04;;;;;;;4.60;4.00;;;;;;;3.85;100.00;99019.21;109631;1251;60117;-71
2023/11/10 03:34:30;;;;;;;4.90;4.10;;;;;;;3.89;100.00;99021.45;109578;1250;74729;-71
2023/11/10 03:36:57;;;;;;;5.70;4.40;;;;;;;3.93;100.00;99019.02;109570;1250;67768;-71
2023/11/10 03:39:24;;;;;;;5.30;4.20;;;;;;;3.97;100.00;99017.63;109615;1250;59264;-71
2023/11/10 03:41:51;;;;;;;5.20;4.00;;;;;;;4.00;100.00;99015.41;109571;1250;61262;-71
2023/11/10 03:44:18;;;;;;;5.00;4.50;;;;;;;4.04;100.00;99009.56;109649;1250;59075;-72
2023/11/10 03:46:44;;;;;;;5.50;4.10;;;;;;;4.04;100.00;99012.39;109616;1250;73177;-71
2023/11/10 03:49:11;;;;;;;5.20;4.00;;;;;;;4.11;100.00;99004.53;109526;1251;66608;-71
2023/11/10 03:51:37;;;;;;;5.40;4.30;;;;;;;4.17;100.00;99000.77;109565;1251;58976;-71
2023/11/10 03:54:04;;;;;;;5.70;4.20;;;;;;;4.17;100.00;98996.27;109627;1250;59977;-71
2023/11/10 03:56:35;;;;;;;4.10;3.60;;;;;;;4.18;100.00;98996.47;109629;1251;60219;-69
2023/11/10 03:59:04;;;;;;;4.70;4.00;;;;;;;4.20;100.00;99000.64;109629;1251;74628;-70
2023/11/10 04:01:32;;;;;;;4.60;3.70;;;;;;;4.22;100.00;98995.77;109593;1251;66424;-70
2023/11/10 04:03:59;;;;;;;4.90;4.40;;;;;;;4.23;100.00;98988.69;109660;1251;72750;-71
2023/11/10 04:06:25;;;;;;;4.60;4.20;;;;;;;4.25;100.00;98984.80;109618;1250;58961;-70
2023/11/10 04:09:07;;;;;;;5.30;4.80;;;;;;;4.26;100.00;98977.46;109549;1251;59236;-71
2023/11/10 04:11:33;;;;;;;6.40;4.50;;;;;;;4.28;100.00;98973.73;109644;1250;74668;-70
2023/11/10 04:14:00;;;;;;;5.50;4.00;;;;;;;4.30;100.00;98976.38;109611;1251;68087;-71
2023/11/10 04:16:26;;;;;;;4.60;4.10;;;;;;;4.33;100.00;98972.11;109578;1250;70458;-72
2023/11/10 04:18:53;;;;;;;6.40;4.30;;;;;;;4.34;100.00;98969.90;109596;1251;58917;-69
2023/11/10 04:21:25;;;;;;;5.00;4.60;;;;;;;4.35;100.00;98965.58;109640;1250;60020;-69
2023/11/10 04:23:52;;;;;;;5.60;4.70;;;;;;;4.37;100.00;98962.77;109675;1251;74593;-69
2023/11/10 04:26:18;;;;;;;5.50;4.60;;;;;;;4.38;100.00;98960.77;109668;1251;66941;-69
2023/11/10 04:28:48;;;;;;;6.50;4.80;;;;;;;4.39;100.00;98954.66;109658;1251;72375;-70
2023/11/10 04:31:15;;;;;;;8.30;5.60;;;;;;;4.41;100.00;98951.83;109624;1251;60282;-69
2023/11/10 04:33:44;;;;;;;6.00;5.00;;;;;;;4.42;100.00;98942.65;109611;1251;59730;-69
2023/11/10 04:36:14;;;;;;;6.10;5.20;;;;;;;4.39;100.00;98933.56;109646;1251;73580;-69
2023/11/10 04:38:43;;;;;;;7.60;6.10;;;;;;;4.35;100.00;98930.95;109563;1250;66409;-70
2023/11/10 04:41:10;;;;;;;6.30;5.40;;;;;;;4.31;100.00;98929.24;109623;1251;71171;-71
2023/11/10 04:43:37;;;;;;;6.30;5.30;;;;;;;4.29;100.00;98929.14;109580;1254;59966;-71
2023/11/10 04:46:04;;;;;;;7.80;6.20;;;;;;;4.29;100.00;98931.33;109729;1250;60124;-73
2023/11/10 04:48:35;;;;;;;7.60;6.00;;;;;;;4.31;100.00;98931.36;109563;1250;74498;-71
2023/11/10 04:51:03;;;;;;;7.70;6.70;;;;;;;4.34;100.00;98932.50;109670;1251;68126;-75
2023/11/10 04:53:31;;;;;;;10.60;7.10;;;;;;;4.36;100.00;98930.86;109606;1250;74614;-74
2023/11/10 04:55:57;;;;;;;9.50;7.00;;;;;;;4.39;100.00;98926.61;109563;1251;62174;-75
2023/11/10 04:58:24;;;;;;;7.80;6.90;;;;;;;4.41;100.00;98920.23;109630;1251;60397;-72
2023/11/10 05:00:53;;;;;;;6.00;5.40;;;;;;;4.43;100.00;98922.23;109617;1251;74624;-74
2023/11/10 05:03:21;;;;;;;6.40;5.50;;;;;;;4.38;100.00;98921.59;109561;1251;68407;-70
2023/11/10 05:05:49;;;;;;;6.10;4.90;;;;;;;4.32;100.00;98916.34;109564;1251;72627;-70
2023/11/10 05:08:15;;;;;;;5.70;5.10;;;;;;;4.25;100.00;98916.85;109576;1251;59051;-72
2023/11/10 05:10:43;;;;;;;6.50;5.50;;;;;;;4.19;100.00;98918.97;109571;1251;61560;-70
2023/11/10 05:13:11;;;;;;;7.70;6.00;;;;;;;4.16;100.00;98921.70;109620;1251;73430;-73
2023/11/10 05:15:38;;;;;;;6.60;5.60;;;;;;;4.17;100.00;98914.98;109678;1250;67607;-69
2023/11/10 05:18:05;;;;;;;6.10;5.30;;;;;;;4.21;100.00;98914.58;109594;1251;72725;-71
2023/11/10 05:20:32;;;;;;;6.70;5.90;;;;;;;4.25;100.00;98917.02;109572;1251;59526;-70
2023/11/10 05:22:59;;;;;;;6.90;6.10;;;;;;;4.27;100.00;98917.15;109519;1251;61692;-70
2023/11/10 05:25:26;;;;;;;6.20;5.50;;;;;;;4.28;100.00;98921.86;109652;1251;74667;-73
2023/11/10 05:27:52;;;;;;;6.60;5.10;;;;;;;4.28;100.00;98920.79;109633;1250;68192;-67
2023/11/10 05:30:19;;;;;;;6.40;4.80;;;;;;;4.30;100.00;98923.42;109631;1251;72544;-67
2023/11/10 05:32:47;;;;;;;6.70;5.60;;;;;;;4.32;100.00;98921.95;109597;1251;59418;-67
2023/11/10 05:35:13;;;;;;;6.60;5.90;;;;;;;4.36;100.00;98924.23;109605;1251;58977;-67
2023/11/10 05:37:40;;;;;;;6.00;5.40;;;;;;;4.39;100.00;98921.14;109646;1250;74930;-67
2023/11/10 05:40:09;;;;;;;5.50;4.90;;;;;;;4.43;100.00;98914.45;109627;1250;68998;-67
2023/11/10 05:42:36;;;;;;;8.90;5.60;;;;;;;4.51;100.00;98907.48;109603;1251;71316;-66
2023/11/10 05:45:03;;;;;;;6.80;5.60;;;;;;;4.58;100.00;98910.48;109641;1250;60953;-67
2023/11/10 05:47:32;;;;;;;6.50;5.60;;;;;;;4.63;100.00;98910.79;109632;1251;59154;-68
2023/11/10 05:49:59;;;;;;;6.70;6.00;;;;;;;4.65;100.00;98904.61;109572;1251;73159;-70
2023/11/10 05:52:29;;;;;;;5.70;4.90;;;;;;;4.66;100.00;98912.18;109602;1251;66933;-69
2023/11/10 05:54:56;;;;;;;6.00;5.20;;;;;;;4.68;100.00;98914.16;109612;1251;72415;-69
2023/11/10 05:57:22;;;;;;;6.80;5.50;;;;;;;4.68;100.00;98915.58;109577;1251;61004;-68
2023/11/10 05:59:49;;;;;;;6.00;5.20;;;;;;;4.67;100.00;98915.09;109685;1250;58972;-68
2023/11/10 06:02:17;;;;;;;6.90;5.70;;;;;;;4.68;100.00;98916.63;109613;1251;73497;-66
2023/11/10 06:04:44;;;;;;;8.20;5.80;;;;;;;4.68;100.00;98913.45;109618;1251;66829;-70
2023/11/10 06:07:11;;;;;;;6.60;6.00;;;;;;;4.68;100.00;98913.39;109613;1251;70775;-68
2023/11/10 06:09:37;;;;;;;5.80;5.20;;;;;;;4.67;100.00;98914.19;109627;1252;59782;-70
2023/11/10 06:12:06;;;;;;;9.10;6.70;;;;;;;4.66;100.00;98918.86;109686;1251;59327;-68
2023/11/10 06:14:32;;;;;;;7.60;6.60;;;;;;;4.67;100.00;98921.63;109542;1251;73857;-67
2023/11/10 06:16:59;;;;;;;5.80;5.20;;;;;;;4.67;100.00;98921.90;109655;1251;58996;-68
2023/11/10 06:19:25;;;;;;;7.20;5.40;;;;;;;4.70;100.00;98918.02;109632;1250;58924;-67
2023/11/10 06:21:52;;;;;;;6.80;5.70;;;;;;;4.74;100.00;98922.48;109581;1251;58965;-68
2023/11/10 06:24:20;;;;;;;6.00;5.50;;;;;;;4.79;100.00;98916.96;109644;1251;59147;-67
2023/11/10 06:26:47;;;;;;;7.00;6.00;;;;;;;4.84;100.00;98919.39;109603;1251;74353;-68
2023/11/10 06:29:16;;;;;;;6.80;6.00;;;;;;;4.87;100.00;98913.27;109654;1251;68223;-68
2023/11/10 06:31:45;;;;;;;6.90;6.20;;;;;;;4.90;100.00;98917.36;109447;1251;70381;-67
2023/11/10 06:34:11;;;;;;;6.90;6.10;;;;;;;4.92;100.00;98917.41;109484;1250;60998;-68
2023/11/10 06:36:38;;;;;;;7.20;5.70;;;;;;;4.95;100.00;98915.84;109677;1250;58943;-67
2023/11/10 06:39:04;;;;;;;7.20;6.50;;;;;;;5.01;100.00;98907.74;109492;1251;74350;-67
2023/11/10 06:41:31;;;;;;;7.50;6.80;;;;;;;5.07;100.00;98912.06;109490;1253;67718;-68
2023/11/10 06:43:57;;;;;;;9.00;6.90;;;;;;;5.10;100.00;98910.52;109464;1251;72639;-66
2023/11/10 06:46:26;;;;;;;6.50;5.80;;;;;;;5.14;100.00;98897.14;109502;1251;59047;-67
2023/11/10 06:48:54;;;;;;;9.80;6.60;;;;;;;5.19;100.00;98896.54;109535;1250;59069;-67
2023/11/10 06:51:20;;;;;;;7.40;6.20;;;;;;;5.28;100.00;98894.90;109487;1254;74169;-67
2023/11/10 06:53:47;;;;;;;7.20;6.20;;;;;;;5.40;100.00;98894.17;109476;1250;68170;-66
2023/11/10 06:56:14;;;;;;;6.60;5.40;;;;;;;5.56;100.00;98900.52;109668;1250;72359;-66
2023/11/10 06:58:41;;;;;;;6.10;5.50;;;;;;;5.75;100.00;98896.45;109603;1250;60269;-67
2023/11/10 07:01:08;;;;;;;6.50;5.40;;;;;;;5.99;100.00;98904.98;109657;1250;58897;-70
2023/11/10 07:03:35;;;;;;;7.00;6.30;;;;;;;6.24;100.00;98893.23;109621;1251;74740;-67
2023/11/10 07:06:04;;;;;;;6.70;6.00;;;;;;;6.46;100.00;98898.37;109585;1251;66614;-68
2023/11/10 07:08:31;;;;;;;6.30;5.60;;;;;;;6.61;100.00;98888.16;109616;1250;71674;-69
2023/11/10 07:11:01;;;;;;;6.40;5.80;;;;;;;6.69;100.00;98885.90;109635;1250;59201;-68
2023/11/10 07:13:29;;;;;;;8.30;6.00;;;;;;;6.81;100.00;98882.86;109567;1251;59254;-68
2023/11/10 07:15:57;;;;;;;9.60;6.70;;;;;;;6.98;100.00;98881.77;109562;1250;74487;-68
2023/11/10 07:18:24;;;;;;;5.90;5.30;;;;;;;7.07;100.00;98880.59;109675;1251;66391;-68
2023/11/10 07:20:51;;;;;;;7.70;6.40;;;;;;;7.07;100.00;98882.36;109575;1251;59321;-68
2023/11/10 07:23:18;;;;;;;7.60;6.80;;;;;;;7.03;100.00;98870.96;109626;1251;58959;-67
2023/11/10 07:25:44;;;;;;;7.20;6.50;;;;;;;7.02;100.00;98872.35;109694;1251;59064;-68
2023/11/10 07:28:11;;;;;;;11.00;6.70;;;;;;;7.02;100.00;98873.02;109635;1250;74668;-67
2023/11/10 07:30:40;;;;;;;8.90;8.00;;;;;;;7.07;100.00;98873.19;109636;1251;67769;-68
2023/11/10 07:33:07;;;;;;;10.60;7.90;;;;;;;7.15;100.00;98874.95;109604;1251;72505;-67
2023/11/10 07:35:36;;;;;;;9.30;7.20;;;;;;;7.27;100.00;98879.01;109634;1251;59758;-66
2023/11/10 07:38:03;;;;;;;6.90;6.20;;;;;;;7.33;100.00;98880.75;109660;1250;60113;-67
2023/11/10 07:40:30;;;;;;;7.40;6.00;;;;;;;7.34;100.00;98876.92;109635;1251;74615;-68
2023/11/10 07:42:57;;;;;;;8.50;6.50;;;;;;;7.40;100.00;98880.83;109656;1254;66513;-68
2023/11/10 07:45:23;;;;;;;8.60;6.10;;;;;;;7.50;100.00;98878.98;109654;1251;72662;-68
2023/11/10 07:47:51;;;;;;;9.70;6.00;;;;;;;7.56;100.00;98882.89;109594;1251;59279;-67
2023/11/10 07:50:19;;;;;;;8.00;6.50;;;;;;;7.57;100.00;98870.10;109689;1251;58859;-67
2023/11/10 07:52:49;;;;;;;10.10;7.00;;;;;;;7.58;100.00;98880.53;109670;1253;74386;-67
2023/11/10 07:55:15;;;;;;;7.10;6.10;;;;;;;7.71;100.00;98875.77;109622;1251;66406;-67
2023/11/10 07:57:43;;;;;;;6.50;5.70;;;;;;;7.82;100.00;98877.75;109613;1254;72488;-68
2023/11/10 08:00:13;;;;;;;6.40;5.70;;;;;;;7.98;100.00;98878.61;109667;1250;62030;-68
2023/11/10 08:02:40;;;;;;;6.00;5.20;;;;;;;8.20;100.00;98869.27;109634;1251;60215;-68
2023/11/10 08:05:07;;;;;;;6.70;6.00;;;;;;;8.52;100.00;98876.73;109619;1250;74428;-68
2023/11/10 08:07:34;;;;;;;10.00;6.10;;;;;;;8.84;100.00;98873.55;109628;1253;66599;-68
2023/11/10 08:10:04;;;;;;;8.80;5.90;;;;;;;9.11;100.00;98867.88;109674;1251;72575;-67
2023/11/10 08:12:33;;;;;;;7.10;6.40;;;;;;;9.34;100.00;98871.79;109629;1251;60269;-66
2023/11/10 08:15:00;;;;;;;7.80;5.90;;;;;;;9.42;100.00;98868.77;109647;1251;58955;-68
2023/11/10 08:17:28;;;;;;;5.90;5.30;;;;;;;9.45;100.00;98875.41;109618;1251;73640;-68
2023/11/10 08:19:55;;;;;;;7.80;5.50;;;;;;;9.41;100.00;98872.55;109733;1251;67733;-69
2023/11/10 08:22:22;;;;;;;6.30;5.40;;;;;;;9.35;100.00;98870.77;109645;1251;72586;-66
2023/11/10 08:24:49;;;;;;;5.10;4.60;;;;;;;9.40;100.00;98872.56;109570;1250;59019;-68
2023/11/10 08:27:15;;;;;;;6.70;5.00;;;;;;;9.49;100.00;98873.39;109633;1250;60316;-67
2023/11/10 08:29:42;;;;;;;8.50;4.90;;;;;;;9.57;100.00;98879.02;109564;1251;74391;-68
2023/11/10 08:32:09;;;;;;;4.90;4.40;;;;;;;9.59;100.00;98874.17;109694;1251;65590;-68
2023/11/10 08:34:35;;;;;;;6.00;4.10;;;;;;;9.51;100.00;98880.90;109508;1251;71171;-66
2023/11/10 08:37:02;;;;;;;5.70;4.90;;;;;;;9.42;100.00;98869.11;109600;1251;59657;-67
2023/11/10 08:39:29;;;;;;;14.90;5.90;;;;;;;9.33;100.00;98860.20;109655;1251;60375;-67
2023/11/10 08:41:56;;;;;;;6.20;4.90;;;;;;;9.26;100.00;98857.80;109579;1255;72908;-69
2023/11/10 08:44:23;;;;;;;5.60;5.10;;;;;;;9.23;100.00;98866.64;109628;1254;67926;-68
2023/11/10 08:46:50;;;;;;;6.80;5.00;;;;;;;9.21;100.00;98865.58;109697;1251;71794;-69
2023/11/10 08:49:17;;;;;;;6.10;5.50;;;;;;;9.16;100.00;98863.58;109645;1251;59487;-69
2023/11/10 08:51:44;;;;;;;6.30;5.40;;;;;;;9.11;100.00;98870.61;109648;1251;61199;-67
2023/11/10 08:54:10;;;;;;;6.00;5.40;;;;;;;9.02;100.00;98871.02;109667;1251;74676;-68
2023/11/10 08:56:37;;;;;;;5.80;5.20;;;;;;;8.89;100.00;98868.52;109658;1251;68038;-67
2023/11/10 08:59:04;;;;;;;6.50;5.50;;;;;;;8.78;100.00;98866.08;109615;1251;72586;-68
2023/11/10 09:01:31;;;;;;;6.70;5.50;;;;;;;8.69;100.00;98865.79;109658;1251;59049;-68
2023/11/10 09:03:59;;;;;;;6.10;5.30;;;;;;;8.61;100.00;98858.58;109646;1250;60223;-68
2023/11/10 09:06:44;;;;;;;5.70;4.60;;;;;;;8.53;100.00;98854.78;109495;1250;73437;-68
2023/11/10 09:09:11;;;;;;;6.80;4.80;;;;;;;8.54;100.00;98849.92;109713;1251;68066;-68
2023/11/10 09:11:38;;;;;;;5.70;4.90;;;;;;;8.59;100.00;98840.23;109665;1251;72469;-69
2023/11/10 09:14:05;;;;;;;6.80;4.70;;;;;;;8.73;100.00;98837.97;109666;1251;59902;-69
2023/11/10 09:16:31;;;;;;;5.90;5.30;;;;;;;8.85;100.00;98836.61;109608;1251;58868;-69
2023/11/10 09:18:59;;;;;;;7.80;5.10;;;;;;;8.96;100.00;98829.48;109693;1253;74688;-68
2023/11/10 09:21:25;;;;;;;6.90;4.70;;;;;;;9.07;100.00;98823.38;109621;1250;67605;-69
2023/11/10 09:23:54;;;;;;;5.40;4.50;;;;;;;9.23;100.00;98824.71;109677;1255;70662;-67
2023/11/10 09:26:20;;;;;;;6.70;4.90;;;;;;;9.32;100.00;98823.52;109553;1251;59184;-68
2023/11/10 09:28:49;;;;;;;5.10;4.60;;;;;;;9.34;100.00;98815.75;109594;1251;59056;-68
2023/11/10 09:31:17;;;;;;;7.90;4.70;;;;;;;9.33;100.00;98812.13;109630;1251;74510;-67
2023/11/10 09:33:44;;;;;;;9.00;5.90;;;;;;;9.28;100.00;98815.08;109640;1254;67580;-68
2023/11/10 09:36:10;;;;;;;7.20;5.10;;;;;;;9.26;100.00;98818.55;109564;1250;72606;-68
2023/11/10 09:38:37;;;;;;;5.60;4.90;;;;;;;9.21;100.00;98811.02;109540;1255;59608;-68
2023/11/10 09:41:04;;;;;;;6.40;4.60;;;;;;;9.18;100.00;98805.33;109674;1251;58980;-69
2023/11/10 09:43:30;;;;;;;6.50;5.80;;;;;;;9.29;100.00;98793.45;109605;1250;73953;-67
2023/11/10 09:45:57;;;;;;;6.80;5.60;;;;;;;9.50;100.00;98791.83;109636;1251;66662;-68
2023/11/10 09:48:24;;;;;;;4.90;4.40;;;;;;;9.76;100.00;98794.41;109435;1252;72716;-69
2023/11/10 09:50:51;;;;;;;4.80;4.40;;;;;;;9.99;100.00;98782.40;109605;1256;59044;-69
2023/11/10 09:53:18;;;;;;;6.50;5.30;;;;;;;10.21;100.00;98778.03;109354;1252;139628;-68
2023/11/10 09:55:45;;;;;;;5.50;4.90;;;;;;;10.41;100.00;98768.98;109582;1250;73547;-68
2023/11/10 09:58:11;;;;;;;5.30;4.70;;;;;;;10.63;100.00;98767.55;109622;1251;67969;-67
2023/11/10 10:00:39;;;;;;;5.90;4.60;;;;;;;10.75;100.00;98764.42;109593;1251;72737;-69
2023/11/10 10:03:05;;;;;;;6.00;4.80;;;;;;;10.71;100.00;98758.42;109453;1254;58981;-67
2023/11/10 10:05:32;;;;;;;5.00;4.30;;;;;;;10.55;100.00;98762.38;109634;1251;58999;-69
2023/11/10 10:07:58;;;;;;;5.60;4.50;;;;;;;10.34;100.00;98762.58;109708;1251;73508;-68
2023/11/10 10:10:25;;;;;;;5.60;4.30;;;;;;;10.13;100.00;98763.77;109659;1251;68149;-69
2023/11/10 10:12:53;;;;;;;5.50;4.90;;;;;;;9.93;100.00;98757.13;109543;1251;71833;-69
2023/11/10 10:15:28;;;;;;;5.60;4.60;;;;;;;9.72;100.00;98756.23;109682;1251;60324;-68
2023/11/10 10:18:03;;;;;;;5.10;4.70;;;;;;;9.57;100.00;98750.48;109620;1254;60125;-67
2023/11/10 10:20:29;;;;;;;12.20;4.70;;;;;;;9.49;100.00;98746.15;109632;1251;74811;-70
2023/11/10 10:22:57;;;;;;;6.20;4.60;;;;;;;9.42;100.00;98743.73;109675;1251;68018;-69
2023/11/10 10:25:24;;;;;;;4.40;4.00;;;;;;;9.37;100.00;98739.76;109611;1251;72465;-69
2023/11/10 10:27:51;;;;;;;6.50;4.60;;;;;;;9.33;100.00;98740.94;109607;1251;59026;-68
2023/11/10 10:30:18;;;;;;;5.80;4.70;;;;;;;9.39;100.00;98738.48;109625;1251;60016;-68
2023/11/10 10:32:45;;;;;;;6.00;4.60;;;;;;;9.50;100.00;98737.34;109643;1251;74890;-69
2023/11/10 10:35:12;;;;;;;5.50;4.20;;;;;;;9.55;100.00;98736.00;109658;1251;67009;-70
2023/11/10 10:37:40;;;;;;;4.00;3.60;;;;;;;9.57;100.00;98733.05;109635;1250;72678;-69
2023/11/10 10:40:11;;;;;;;6.00;4.40;;;;;;;9.63;100.00;98743.21;109621;1251;60342;-69
2023/11/10 10:42:41;;;;;;;8.50;4.40;;;;;;;9.63;100.00;98742.61;109685;1251;58986;-69
2023/11/10 10:45:09;;;;;;;8.90;4.60;;;;;;;9.63;100.00;98732.39;109612;1251;72730;-69
2023/11/10 10:47:36;;;;;;;7.10;5.10;;;;;;;9.70;100.00;98728.69;109534;1251;66778;-68
2023/11/10 10:50:07;;;;;;;6.30;4.50;;;;;;;9.87;100.00;98730.02;109667;1251;72523;-69
2023/11/10 10:52:34;;;;;;;5.70;5.10;;;;;;;10.13;100.00;98734.20;109553;1251;60134;-67
2023/11/10 10:55:02;;;;;;;8.20;5.00;;;;;;;10.30;100.00;98723.92;109635;1254;59057;-69
2023/11/10 10:57:29;;;;;;;4.90;4.40;;;;;;;10.46;100.00;98730.65;109708;1251;73263;-67
2023/11/10 10:59:55;;;;;;;8.60;4.70;;;;;;;10.55;100.00;98722.81;109673;1251;69212;-68
2023/11/10 11:02:22;;;;;;;6.00;4.50;;;;;;;10.52;100.00;98729.00;109551;1251;72753;-67
2023/11/10 11:04:53;;;;;;;4.90;4.10;;;;;;;10.38;100.00;98728.39;109532;1251;60258;-68
2023/11/10 11:07:54;;;;;;;7.10;4.60;;;;;;;10.19;100.00;98718.71;109597;1251;59316;-69
2023/11/10 11:10:33;;;;;;;5.30;4.80;;;;;;;10.02;100.00;98726.30;109644;1251;73521;-67
2023/11/10 11:13:13;;;;;;;5.80;5.20;;;;;;;9.94;100.00;98730.09;109648;1251;68003;-67
2023/11/10 11:16:16;;;;;;;8.20;5.00;;;;;;;9.84;100.00;98724.23;109594;1251;72675;-66
2023/11/10 11:19:12;;;;;;;5.20;4.10;;;;;;;9.72;100.00;98716.99;109570;1256;60169;-66
2023/11/10 11:21:39;;;;;;;5.00;4.50;;;;;;;9.56;100.00;98702.30;109521;1251;60140;-67
2023/11/10 11:24:06;;;;;;;5.90;4.90;;;;;;;9.43;100.00;98715.39;109605;1251;73954;-68
2023/11/10 11:26:36;;;;;;;5.70;4.90;;;;;;;9.31;100.00;98707.12;109664;1250;66581;-68